This is the latest recevied weather packets stored in our database for station/object K3HM. If no packets are shown the sender has not sent any weather packets the latest 10 day(s).
| Time | Temp. | Humidity | Pressure | Rain* | Wind** | Luminosity | Snow |
|---|---|---|---|---|---|---|---|
| 1777755834 | 5.56° C | 71% | 1013.7 hPa | 0 mm | - | 154 W/m² | - |
| 1777755532 | 6.11° C | 70% | 1013.4 hPa | 0 mm | - | 149 W/m² | - |
| 1777755227 | 5.56° C | 71% | 1013.5 hPa | 0 mm | - | 150 W/m² | - |
| 1777754925 | 6.11° C | 71% | 1013.5 hPa | 0 mm | - | 148 W/m² | - |
| 1777754622 | 5.56° C | 69% | 1013.5 hPa | 0 mm | - | 170 W/m² | - |
| 1777754319 | 5.56° C | 69% | 1013.4 hPa | 0 mm | - | 174 W/m² | - |
| 1777754017 | 5.56° C | 69% | 1013.4 hPa | 0 mm | - | 167 W/m² | - |
| 1777753712 | 5.56° C | 68% | 1013.5 hPa | 0 mm | - | 124 W/m² | - |
| 1777753410 | 6.11° C | 68% | 1013.7 hPa | 0 mm | - | 134 W/m² | - |
| 1777753108 | 5.56° C | 71% | 1013.4 hPa | 0 mm | - | 160 W/m² | - |
| 1777752803 | 6.11° C | 68% | 1013.5 hPa | 0 mm | - | 171 W/m² | - |
| 1777752500 | 6.11° C | 65% | 1013.5 hPa | 0 mm | - | 208 W/m² | - |
| 1777752195 | 6.11° C | 63% | 1013.4 hPa | 0 mm | - | 225 W/m² | - |
| 1777751894 | 6.67° C | 60% | 1013.3 hPa | 0 mm | - | 154 W/m² | - |
| 1777751590 | 6.67° C | 61% | 1013.7 hPa | 0 mm | - | 179 W/m² | - |
| 1777751287 | 7.22° C | 60% | 1013.8 hPa | 0 mm | - | 238 W/m² | - |
| 1777750984 | 6.67° C | 59% | 1013.9 hPa | 0 mm | - | 280 W/m² | - |
| 1777750679 | 6.67° C | 61% | 1013.7 hPa | 0 mm | - | 302 W/m² | - |
| 1777750377 | 7.22° C | 60% | 1013.9 hPa | 0 mm | - | 208 W/m² | - |
| 1777750077 | 7.22° C | 60% | 1013.8 hPa | 0 mm | - | 337 W/m² | - |
| 1777749775 | 6.11° C | 63% | 1014 hPa | 0 mm | - | 417 W/m² | - |
| 1777749472 | 6.11° C | 65% | 1014.3 hPa | 0 mm | - | 219 W/m² | - |
| 1777749170 | 6.11° C | 64% | 1014.3 hPa | 0 mm | - | 106 W/m² | - |
| 1777748867 | 6.67° C | 62% | 1014.2 hPa | 0 mm | - | 82 W/m² | - |
| 1777748564 | 6.67° C | 61% | 1014.1 hPa | 0 mm | - | 171 W/m² | - |
* Rain latest hour (hover to see other rain measurements)
** Current wind speed in m/s (hover to see current wind gust speed)